Time;durP1;ratioP1;P1;durP2;ratioP2;P2;SDS_P1;SDS_P2;PMS_P1;PMS_P2;Temp;Humidity;BMP_temperature;BMP_pressure;BME280_temperature;BME280_humidity;BME280_pressure;Samples;Min_cycle;Max_cycle;Signal;HPM_P1;HPM_P2
2023/07/23 00:01:33;;;;;;;7.63;7.23;;;21.50;11.70;;;;;;4971881;28;20553;-54
2023/07/23 00:03:58;;;;;;;6.70;6.20;;;21.40;11.90;;;;;;4972015;28;20182;-53
2023/07/23 00:06:24;;;;;;;7.23;6.80;;;21.30;12.10;;;;;;4971824;28;20635;-56
2023/07/23 00:08:50;;;;;;;6.83;6.40;;;21.30;12.10;;;;;;4971724;28;20222;-55
2023/07/23 00:11:15;;;;;;;6.77;6.37;;;21.20;12.50;;;;;;4987829;28;20220;-56
2023/07/23 00:13:41;;;;;;;6.90;6.60;;;21.20;12.50;;;;;;4971827;28;20285;-55
2023/07/23 00:16:06;;;;;;;7.40;6.97;;;21.20;12.50;;;;;;4974171;28;20174;-54
2023/07/23 00:18:32;;;;;;;6.73;6.33;;;21.20;12.50;;;;;;4976715;28;20167;-55
2023/07/23 00:20:58;;;;;;;7.20;6.80;;;21.20;12.60;;;;;;4991792;28;20182;-54
2023/07/23 00:23:23;;;;;;;7.17;6.77;;;21.20;12.70;;;;;;4976705;28;20257;-54
2023/07/23 00:25:49;;;;;;;6.80;6.40;;;21.10;12.50;;;;;;4975555;28;20204;-55
2023/07/23 00:28:14;;;;;;;6.80;6.50;;;21.10;12.60;;;;;;4975257;28;20178;-55
2023/07/23 00:30:40;;;;;;;7.67;7.00;;;21.10;12.70;;;;;;4975540;28;20179;-55
2023/07/23 00:33:06;;;;;;;7.60;7.20;;;21.10;12.70;;;;;;4991583;28;20178;-56
2023/07/23 00:35:32;;;;;;;6.50;6.10;;;21.00;12.90;;;;;;4991508;28;20471;-54
2023/07/23 00:37:57;;;;;;;7.03;6.63;;;21.00;13.00;;;;;;4975156;28;20678;-53
2023/07/23 00:40:23;;;;;;;6.43;6.10;;;21.00;13.00;;;;;;4975301;28;20183;-55
2023/07/23 00:42:49;;;;;;;6.90;6.50;;;21.20;13.10;;;;;;4976470;28;20171;-55
2023/07/23 00:45:14;;;;;;;6.80;6.47;;;21.20;12.80;;;;;;4991314;28;20185;-55
2023/07/23 00:47:42;;;;;;;7.07;6.57;;;21.10;12.90;;;;;;4976353;28;20230;-54
2023/07/23 00:50:10;;;;;;;6.40;6.10;;;21.00;13.00;;;;;;4991116;28;20190;-54
2023/07/23 00:52:36;;;;;;;7.67;7.10;;;20.90;13.30;;;;;;4974973;28;20418;-55
2023/07/23 00:55:02;;;;;;;6.47;6.17;;;20.80;13.60;;;;;;4974898;28;20457;-55
2023/07/23 00:57:28;;;;;;;7.23;6.67;;;20.80;13.60;;;;;;4974856;28;20414;-55
2023/07/23 00:59:56;;;;;;;6.73;6.43;;;20.90;13.70;;;;;;4974705;28;20422;-55
2023/07/23 01:02:23;;;;;;;6.60;6.20;;;21.00;13.70;;;;;;4974803;28;20258;-60
2023/07/23 01:04:48;;;;;;;6.87;6.50;;;21.00;13.30;;;;;;4974833;28;20492;-59
2023/07/23 01:07:15;;;;;;;6.30;6.00;;;21.10;13.10;;;;;;4974765;28;20410;-59
2023/07/23 01:09:41;;;;;;;7.13;6.73;;;21.20;13.20;;;;;;4974431;28;20195;-59
2023/07/23 01:12:07;;;;;;;6.97;6.67;;;21.20;13.20;;;;;;4974790;28;20783;-59
2023/07/23 01:14:33;;;;;;;6.80;6.50;;;21.30;13.20;;;;;;4974453;28;20472;-59
2023/07/23 01:16:59;;;;;;;7.33;7.03;;;21.30;13.20;;;;;;4974536;28;20422;-59
2023/07/23 01:19:26;;;;;;;6.87;6.57;;;21.30;13.20;;;;;;4974299;28;20213;-59
2023/07/23 01:22:05;;;;;;;7.33;6.93;;;21.30;13.30;;;;;;4974494;28;20818;-59
2023/07/23 01:24:31;;;;;;;6.73;6.43;;;21.30;13.40;;;;;;4974391;28;20418;-59
2023/07/23 01:26:56;;;;;;;7.40;6.90;;;21.30;13.40;;;;;;4973642;28;20915;-59
2023/07/23 01:29:22;;;;;;;6.93;6.53;;;21.30;13.30;;;;;;4974051;28;20186;-59
2023/07/23 01:31:47;;;;;;;7.20;6.80;;;21.30;13.40;;;;;;4974365;28;20312;-59
2023/07/23 01:34:13;;;;;;;6.50;6.10;;;21.30;13.50;;;;;;4975488;28;20206;-59
2023/07/23 01:36:40;;;;;;;6.83;6.27;;;21.20;13.40;;;;;;4974207;28;20213;-55
2023/07/23 01:39:05;;;;;;;7.17;6.77;;;21.20;13.40;;;;;;4974139;28;20175;-55
2023/07/23 01:41:31;;;;;;;7.60;7.10;;;21.20;13.60;;;;;;4975337;28;20413;-56
2023/07/23 01:43:59;;;;;;;7.20;6.80;;;21.20;13.90;;;;;;4974055;28;20520;-55
2023/07/23 01:46:24;;;;;;;6.77;6.23;;;21.20;13.60;;;;;;4974027;28;20182;-53
2023/07/23 01:48:50;;;;;;;7.47;7.00;;;21.20;13.60;;;;;;4989999;28;20429;-55
2023/07/23 01:51:15;;;;;;;7.00;6.57;;;21.20;13.60;;;;;;4975205;28;20185;-54
2023/07/23 01:53:41;;;;;;;6.83;6.50;;;21.20;13.20;;;;;;4973889;28;20563;-53
2023/07/23 01:56:07;;;;;;;6.33;6.03;;;21.20;12.70;;;;;;4973928;28;20171;-54
2023/07/23 01:58:32;;;;;;;6.77;6.47;;;21.10;12.70;;;;;;4974875;28;20210;-55
2023/07/23 02:01:00;;;;;;;6.63;6.23;;;21.10;13.10;;;;;;4972513;28;20209;-55
2023/07/23 02:03:26;;;;;;;6.83;6.43;;;21.00;12.80;;;;;;4973587;28;20202;-56
2023/07/23 02:06:00;;;;;;;6.73;6.33;;;21.00;12.90;;;;;;4955291;28;20420;-56
2023/07/23 02:08:26;;;;;;;6.03;5.80;;;20.90;13.10;;;;;;4950883;29;20592;-55
2023/07/23 02:11:02;;;;;;;11.03;6.70;;;20.90;13.10;;;;;;4962383;28;20482;-55
2023/07/23 02:13:30;;;;;;;6.47;6.17;;;20.90;13.40;;;;;;4934605;29;20435;-54
2023/07/23 02:15:56;;;;;;;6.37;5.80;;;20.90;13.50;;;;;;4953596;28;20431;-54
2023/07/23 02:18:22;;;;;;;6.50;6.00;;;20.90;13.70;;;;;;4970138;28;20418;-56
2023/07/23 02:20:48;;;;;;;6.60;6.20;;;21.00;13.50;;;;;;4954168;29;20415;-56
2023/07/23 02:23:17;;;;;;;6.53;6.03;;;20.90;13.00;;;;;;4954103;28;20592;-55
2023/07/23 02:25:43;;;;;;;6.73;6.33;;;20.80;13.40;;;;;;4953973;29;20920;-56
2023/07/23 02:28:10;;;;;;;6.60;6.30;;;20.80;13.50;;;;;;4969848;28;20514;-56
2023/07/23 02:30:36;;;;;;;6.30;6.00;;;20.70;13.50;;;;;;4953870;29;20445;-56
2023/07/23 02:33:02;;;;;;;6.93;6.43;;;20.70;13.50;;;;;;4955228;28;20776;-55
2023/07/23 02:35:28;;;;;;;5.77;5.47;;;20.70;13.30;;;;;;4953701;29;20502;-55
2023/07/23 02:37:53;;;;;;;7.00;6.60;;;20.70;13.30;;;;;;4952627;28;20659;-56
2023/07/23 02:40:20;;;;;;;6.60;6.20;;;20.70;13.50;;;;;;4953449;29;20179;-54
2023/07/23 02:42:48;;;;;;;7.00;6.50;;;20.70;13.30;;;;;;4953426;29;20175;-53
2023/07/23 02:45:14;;;;;;;7.30;6.90;;;20.60;13.50;;;;;;4953350;29;20470;-54
2023/07/23 02:47:39;;;;;;;6.87;6.57;;;20.60;13.50;;;;;;4953242;29;20423;-54
2023/07/23 02:50:06;;;;;;;6.97;6.63;;;20.50;13.40;;;;;;4953258;29;20183;-53
2023/07/23 02:52:31;;;;;;;6.80;6.40;;;20.50;13.40;;;;;;4953232;29;20446;-56
2023/07/23 02:54:57;;;;;;;6.80;6.50;;;20.50;13.40;;;;;;4969467;28;20463;-53
2023/07/23 02:57:23;;;;;;;6.50;6.00;;;20.50;13.40;;;;;;4953441;29;20172;-59
2023/07/23 02:59:48;;;;;;;6.53;5.93;;;20.40;13.40;;;;;;4953162;29;20175;-58
2023/07/23 03:02:14;;;;;;;6.30;5.90;;;20.40;13.30;;;;;;4953358;29;20171;-55
2023/07/23 03:04:41;;;;;;;6.53;6.23;;;20.50;13.40;;;;;;4953293;29;20194;-54
2023/07/23 03:07:09;;;;;;;6.93;6.53;;;20.40;13.30;;;;;;4953407;28;20186;-54
2023/07/23 03:09:35;;;;;;;6.10;5.80;;;20.40;13.40;;;;;;4952899;29;20446;-56
2023/07/23 03:12:02;;;;;;;7.07;6.77;;;20.40;13.40;;;;;;4953193;29;20423;-55
2023/07/23 03:14:28;;;;;;;7.00;6.70;;;20.30;13.40;;;;;;4953062;29;20521;-53
2023/07/23 03:16:54;;;;;;;7.03;6.70;;;20.20;13.60;;;;;;4953135;29;20755;-55
2023/07/23 03:19:19;;;;;;;7.20;6.80;;;20.20;13.80;;;;;;4954058;28;20589;-55
2023/07/23 03:21:45;;;;;;;6.93;6.63;;;20.20;13.80;;;;;;4953069;29;20537;-59
2023/07/23 03:24:10;;;;;;;6.40;6.10;;;20.30;13.80;;;;;;4969129;28;20230;-59
2023/07/23 03:26:36;;;;;;;7.23;6.70;;;20.30;13.90;;;;;;4969208;28;20529;-59
2023/07/23 03:29:02;;;;;;;6.80;6.50;;;20.30;13.70;;;;;;4952831;29;20176;-59
2023/07/23 03:31:27;;;;;;;6.90;6.53;;;20.30;13.90;;;;;;4969004;28;20278;-55
2023/07/23 03:33:53;;;;;;;6.57;6.27;;;20.20;13.90;;;;;;4952778;29;20253;-55
2023/07/23 03:36:19;;;;;;;6.73;6.33;;;20.20;14.00;;;;;;4952854;28;20226;-56
2023/07/23 03:38:44;;;;;;;6.23;5.93;;;20.10;14.10;;;;;;4952775;29;20230;-56
2023/07/23 03:41:10;;;;;;;6.87;6.53;;;20.10;14.20;;;;;;4952755;29;20171;-56
2023/07/23 03:43:35;;;;;;;6.13;5.83;;;20.10;14.40;;;;;;4952927;29;20776;-55
2023/07/23 03:46:01;;;;;;;6.67;6.37;;;20.10;14.40;;;;;;4952854;29;20187;-55
2023/07/23 03:48:27;;;;;;;6.90;6.60;;;20.10;14.40;;;;;;4952543;29;20548;-55
2023/07/23 03:50:52;;;;;;;7.20;6.70;;;20.10;14.70;;;;;;4956837;28;20632;-56
2023/07/23 03:53:18;;;;;;;6.10;5.80;;;20.10;14.40;;;;;;4960100;28;20183;-55
2023/07/23 03:55:43;;;;;;;6.23;5.93;;;20.10;14.50;;;;;;4963022;23;20233;-46
2023/07/23 03:58:09;;;;;;;7.03;6.63;;;20.20;14.60;;;;;;4941958;28;20224;-50
2023/07/23 04:00:38;;;;;;;6.63;6.23;;;20.20;14.30;;;;;;4952416;29;20658;-51
2023/07/23 04:03:04;;;;;;;6.50;6.10;;;20.20;14.50;;;;;;4948365;29;20188;-52
2023/07/23 04:05:29;;;;;;;7.00;6.50;;;20.30;14.50;;;;;;4935381;29;20761;-46
2023/07/23 04:07:55;;;;;;;7.10;6.70;;;20.40;14.40;;;;;;4935433;29;20290;-47
2023/07/23 04:10:20;;;;;;;7.60;7.20;;;20.50;14.10;;;;;;4934870;29;20294;-49
2023/07/23 04:12:47;;;;;;;6.87;6.57;;;20.40;14.20;;;;;;4935984;29;20179;-47
2023/07/23 04:15:13;;;;;;;7.17;6.60;;;20.30;14.40;;;;;;4935536;29;20262;-54
2023/07/23 04:17:39;;;;;;;7.07;6.70;;;20.20;14.60;;;;;;4935452;29;20427;-50
2023/07/23 04:20:05;;;;;;;6.10;5.80;;;20.10;14.80;;;;;;4935308;29;20183;-51
2023/07/23 04:22:31;;;;;;;7.30;6.80;;;20.10;14.90;;;;;;4934963;29;20184;-50
2023/07/23 04:24:56;;;;;;;6.60;6.30;;;20.00;14.90;;;;;;4935509;29;20431;-43
2023/07/23 04:27:23;;;;;;;7.00;6.70;;;20.10;15.00;;;;;;4935860;29;20176;-46
2023/07/23 04:29:48;;;;;;;7.00;6.60;;;20.10;15.00;;;;;;4936231;29;20176;-49
2023/07/23 04:32:14;;;;;;;6.40;6.10;;;20.00;15.00;;;;;;4923110;29;20415;-49
2023/07/23 04:34:40;;;;;;;7.10;6.70;;;20.00;15.10;;;;;;4923323;29;20204;-44
2023/07/23 04:37:06;;;;;;;7.20;6.50;;;20.10;15.00;;;;;;4922929;29;20211;-46
2023/07/23 04:39:33;;;;;;;6.90;6.60;;;20.10;14.90;;;;;;4946700;28;20239;-48
2023/07/23 04:41:58;;;;;;;6.73;6.40;;;20.20;15.00;;;;;;4938809;29;20788;-53
2023/07/23 04:44:24;;;;;;;7.00;6.60;;;20.20;14.90;;;;;;4938681;29;20499;-52
2023/07/23 04:46:49;;;;;;;6.73;6.43;;;20.20;14.80;;;;;;4938093;29;20180;-50
2023/07/23 04:49:15;;;;;;;6.60;6.30;;;20.20;14.90;;;;;;4939180;29;20230;-51
2023/07/23 04:51:41;;;;;;;7.30;6.70;;;20.20;14.80;;;;;;4939547;29;20179;-51
2023/07/23 04:56:35;;;;;;;6.83;6.53;;;20.30;14.90;;;;;;5026004;23;20224;-60
2023/07/23 04:59:00;;;;;;;6.43;6.13;;;20.30;14.60;;;;;;5015842;28;20435;-59
2023/07/23 05:01:26;;;;;;;6.57;6.07;;;20.40;14.70;;;;;;5015029;28;20416;-59
2023/07/23 05:03:52;;;;;;;6.80;6.50;;;20.40;14.50;;;;;;4997271;28;20204;-60
2023/07/23 05:06:17;;;;;;;7.33;7.03;;;20.40;14.50;;;;;;4997457;28;20236;-59
2023/07/23 05:08:43;;;;;;;7.70;7.30;;;20.40;14.50;;;;;;4997450;28;20239;-59
2023/07/23 05:11:08;;;;;;;7.57;7.27;;;20.50;14.70;;;;;;4997390;28;20188;-59
2023/07/23 05:13:37;;;;;;;7.27;6.87;;;20.50;14.50;;;;;;4997292;28;20603;-59
2023/07/23 05:16:03;;;;;;;7.03;6.73;;;20.60;14.50;;;;;;4997244;28;20182;-59
2023/07/23 05:18:30;;;;;;;7.50;7.10;;;20.70;14.30;;;;;;4997032;28;20435;-52
2023/07/23 05:20:55;;;;;;;6.57;6.17;;;20.70;14.30;;;;;;5013553;28;20428;-50
2023/07/23 05:23:22;;;;;;;7.07;6.77;;;20.60;14.30;;;;;;5014689;28;20767;-50
2023/07/23 05:25:47;;;;;;;7.67;7.27;;;20.70;14.30;;;;;;4997126;28;20181;-54
2023/07/23 05:28:13;;;;;;;7.70;7.30;;;20.70;14.50;;;;;;4996839;28;20421;-51
2023/07/23 05:30:39;;;;;;;7.73;7.30;;;20.70;14.20;;;;;;5013094;28;20634;-55
2023/07/23 05:33:05;;;;;;;6.70;6.40;;;20.80;14.30;;;;;;4996986;28;20427;-53
2023/07/23 05:35:31;;;;;;;6.80;6.40;;;20.80;14.40;;;;;;4999074;28;20501;-54
2023/07/23 05:37:57;;;;;;;6.80;6.50;;;20.90;14.30;;;;;;4991436;28;20435;-55
2023/07/23 05:40:22;;;;;;;7.03;6.73;;;21.00;14.20;;;;;;4995715;28;20235;-55
2023/07/23 05:42:48;;;;;;;7.00;6.70;;;21.00;14.00;;;;;;5012011;28;20181;-56
2023/07/23 05:45:14;;;;;;;6.57;6.10;;;21.10;13.80;;;;;;5011144;28;20660;-55
2023/07/23 05:47:39;;;;;;;7.10;6.80;;;21.10;13.80;;;;;;5012283;28;20189;-56
2023/07/23 05:50:05;;;;;;;6.17;5.87;;;21.20;13.90;;;;;;4995576;28;20209;-56
2023/07/23 05:52:31;;;;;;;7.20;6.80;;;21.20;13.90;;;;;;4995385;28;20267;-53
2023/07/23 05:54:57;;;;;;;6.03;5.73;;;21.30;14.00;;;;;;5013140;28;20919;-57
2023/07/23 05:57:22;;;;;;;5.90;5.70;;;21.30;14.00;;;;;;4995656;28;20718;-55
2023/07/23 05:59:48;;;;;;;6.47;6.03;;;21.30;14.50;;;;;;4995209;28;20184;-54
2023/07/23 06:02:13;;;;;;;7.03;6.60;;;21.40;14.00;;;;;;5011758;28;20515;-55
2023/07/23 06:04:39;;;;;;;6.47;6.17;;;21.40;14.00;;;;;;5011462;28;20181;-54
2023/07/23 06:07:05;;;;;;;6.67;6.33;;;21.50;13.70;;;;;;5011735;28;20178;-55
2023/07/23 06:09:31;;;;;;;6.70;6.20;;;21.60;13.60;;;;;;5011389;28;20443;-59
2023/07/23 06:11:57;;;;;;;5.77;5.57;;;21.60;13.50;;;;;;5011581;28;20188;-59
2023/07/23 06:14:22;;;;;;;6.20;5.80;;;21.70;13.10;;;;;;4994613;28;20279;-59
2023/07/23 06:16:48;;;;;;;5.97;5.77;;;21.80;13.00;;;;;;5011427;28;20189;-59
2023/07/23 06:19:13;;;;;;;6.77;6.30;;;21.90;12.60;;;;;;5011244;28;20184;-59
2023/07/23 06:21:39;;;;;;;7.20;6.60;;;22.00;12.50;;;;;;5011441;28;20537;-59
2023/07/23 06:24:05;;;;;;;6.30;5.87;;;22.10;12.50;;;;;;4995152;28;20593;-58
2023/07/23 06:26:30;;;;;;;6.70;6.30;;;22.20;12.40;;;;;;4995075;28;20648;-59
2023/07/23 06:28:56;;;;;;;6.20;5.90;;;22.20;12.00;;;;;;4995123;28;20708;-59
2023/07/23 06:31:22;;;;;;;7.00;6.70;;;22.20;11.90;;;;;;5011348;28;20186;-55
2023/07/23 06:33:47;;;;;;;6.63;6.13;;;22.20;11.70;;;;;;5011501;28;20173;-55
2023/07/23 06:36:13;;;;;;;6.20;5.70;;;22.30;11.80;;;;;;4994959;28;20231;-56
2023/07/23 06:38:39;;;;;;;6.23;5.93;;;22.30;11.80;;;;;;5011360;28;20207;-54
2023/07/23 06:41:05;;;;;;;5.93;5.57;;;22.30;11.80;;;;;;5011286;28;20258;-56
2023/07/23 06:43:31;;;;;;;6.00;5.70;;;22.30;11.90;;;;;;5011413;28;20197;-55
2023/07/23 06:45:57;;;;;;;5.50;5.30;;;22.30;12.30;;;;;;4995541;28;20447;-54
2023/07/23 06:48:27;;;;;;;6.50;6.20;;;22.40;12.10;;;;;;4995410;28;20193;-59
2023/07/23 06:50:54;;;;;;;6.13;5.73;;;22.40;12.10;;;;;;4995518;28;20174;-59
2023/07/23 06:53:19;;;;;;;6.03;5.73;;;22.40;12.30;;;;;;5011952;28;20942;-59
2023/07/23 06:56:05;;;;;;;5.60;5.30;;;22.40;12.00;;;;;;4995254;28;20506;-59
2023/07/23 06:58:34;;;;;;;6.10;5.80;;;22.40;12.20;;;;;;5011546;28;20181;-59
2023/07/23 07:01:00;;;;;;;5.87;5.57;;;22.50;11.70;;;;;;5011543;28;20474;-56
2023/07/23 07:03:26;;;;;;;6.27;5.90;;;22.50;11.90;;;;;;5011634;28;20508;-53
2023/07/23 07:05:52;;;;;;;7.00;6.63;;;22.60;12.00;;;;;;4990324;28;20858;-57
2023/07/23 07:08:18;;;;;;;6.10;5.73;;;22.60;11.70;;;;;;4994253;28;20408;-55
2023/07/23 07:10:43;;;;;;;5.50;5.30;;;22.70;11.70;;;;;;4994446;28;20508;-60
2023/07/23 07:13:09;;;;;;;5.90;5.53;;;22.70;11.30;;;;;;4994271;28;20178;-60
2023/07/23 07:15:35;;;;;;;5.67;5.37;;;22.80;11.30;;;;;;4994387;28;20672;-59
2023/07/23 07:18:00;;;;;;;6.17;5.77;;;22.90;11.40;;;;;;4994518;28;20264;-60
2023/07/23 07:20:26;;;;;;;6.40;6.10;;;22.90;11.40;;;;;;4994514;28;20227;-60
2023/07/23 07:22:51;;;;;;;6.37;6.07;;;23.00;10.70;;;;;;4994445;28;20247;-60
2023/07/23 07:25:17;;;;;;;6.73;6.40;;;23.10;10.80;;;;;;4993624;28;20650;-60
2023/07/23 07:27:43;;;;;;;6.23;5.83;;;23.10;10.40;;;;;;5010587;28;20217;-60
2023/07/23 07:30:09;;;;;;;6.80;6.40;;;23.20;10.00;;;;;;5010419;28;20220;-61
2023/07/23 07:32:35;;;;;;;6.57;6.27;;;23.30;10.10;;;;;;4994377;28;20182;-53
2023/07/23 07:35:01;;;;;;;6.10;5.80;;;23.50;9.90;;;;;;4994626;28;20802;-55
2023/07/23 07:37:27;;;;;;;7.20;6.80;;;23.50;9.40;;;;;;4994762;28;20491;-54
2023/07/23 07:39:53;;;;;;;7.20;6.70;;;23.60;9.60;;;;;;4994467;28;20174;-57
2023/07/23 07:42:18;;;;;;;6.27;5.87;;;23.60;9.30;;;;;;5011306;28;20169;-57
2023/07/23 07:44:44;;;;;;;6.40;6.10;;;23.70;9.30;;;;;;4994870;28;20625;-56
2023/07/23 07:47:10;;;;;;;6.63;6.17;;;23.80;9.30;;;;;;4994727;28;20181;-58
2023/07/23 07:49:36;;;;;;;6.23;5.93;;;23.80;9.70;;;;;;4994674;28;20177;-60
2023/07/23 07:52:01;;;;;;;6.60;6.20;;;23.90;9.40;;;;;;4992994;28;20426;-60
2023/07/23 07:54:27;;;;;;;5.57;5.37;;;23.90;9.20;;;;;;4991149;28;20204;-60
2023/07/23 07:56:54;;;;;;;6.87;6.47;;;23.90;9.40;;;;;;4991514;28;20592;-61
2023/07/23 07:59:20;;;;;;;6.73;6.33;;;24.00;9.50;;;;;;5007593;28;20507;-62
2023/07/23 08:01:46;;;;;;;6.23;5.80;;;23.90;9.30;;;;;;5007918;28;20507;-60
2023/07/23 08:04:11;;;;;;;6.47;6.17;;;23.90;9.30;;;;;;5008046;28;20546;-59
2023/07/23 08:06:38;;;;;;;5.33;5.03;;;23.80;9.50;;;;;;4992215;28;20831;-59
2023/07/23 08:09:04;;;;;;;6.00;5.60;;;23.80;9.70;;;;;;4993801;28;20177;-60
2023/07/23 08:11:34;;;;;;;6.43;6.03;;;23.90;9.60;;;;;;5010833;28;20440;-60
2023/07/23 08:14:01;;;;;;;6.67;6.27;;;23.90;9.80;;;;;;5010798;28;20486;-63
2023/07/23 08:16:27;;;;;;;6.60;6.00;;;24.00;9.60;;;;;;5010753;28;20416;-54
2023/07/23 08:18:53;;;;;;;5.50;5.30;;;24.00;9.80;;;;;;4994225;28;20995;-54
2023/07/23 08:21:18;;;;;;;6.33;5.70;;;24.00;9.60;;;;;;4994326;28;20275;-53
2023/07/23 08:23:44;;;;;;;5.83;5.53;;;24.10;9.90;;;;;;4994457;28;20535;-54
2023/07/23 08:26:15;;;;;;;6.13;5.83;;;24.20;9.90;;;;;;4994364;28;20547;-54
2023/07/23 08:28:50;;;;;;;6.33;6.00;;;24.30;9.70;;;;;;5010619;28;20578;-53
2023/07/23 08:31:18;;;;;;;6.43;6.13;;;24.30;9.40;;;;;;5010576;28;20789;-53
2023/07/23 08:33:47;;;;;;;5.77;5.47;;;24.30;9.90;;;;;;4994261;28;20467;-52
2023/07/23 08:36:13;;;;;;;5.63;5.40;;;24.30;9.30;;;;;;5011629;28;20416;-53
2023/07/23 08:38:39;;;;;;;5.67;5.37;;;24.30;9.50;;;;;;4998004;28;20504;-50
2023/07/23 08:41:19;;;;;;;5.57;5.27;;;24.30;9.60;;;;;;4998079;28;20805;-54
2023/07/23 08:44:06;;;;;;;6.13;5.83;;;24.40;9.40;;;;;;5014436;28;20876;-53
2023/07/23 08:46:33;;;;;;;5.80;5.50;;;24.30;9.40;;;;;;5014186;28;20423;-54
2023/07/23 08:49:04;;;;;;;6.50;6.20;;;24.30;9.50;;;;;;5014163;28;20424;-54
2023/07/23 08:51:46;;;;;;;5.03;4.83;;;24.40;9.50;;;;;;4997747;28;20408;-54
2023/07/23 08:54:16;;;;;;;5.80;5.47;;;24.30;9.50;;;;;;5014115;28;20451;-52
2023/07/23 08:56:43;;;;;;;5.63;5.30;;;24.30;9.40;;;;;;5014008;28;20451;-52
2023/07/23 08:59:09;;;;;;;5.60;5.27;;;24.40;9.50;;;;;;5013849;28;20413;-55
2023/07/23 09:01:37;;;;;;;6.67;5.77;;;24.30;9.50;;;;;;5013980;28;20439;-54
2023/07/23 09:04:08;;;;;;;5.57;5.37;;;24.30;9.50;;;;;;5013903;28;20880;-52
2023/07/23 09:06:35;;;;;;;5.63;5.33;;;24.30;9.60;;;;;;5013791;28;20420;-52
2023/07/23 09:09:06;;;;;;;5.23;5.03;;;24.40;9.70;;;;;;4997277;28;20781;-51
2023/07/23 09:11:32;;;;;;;5.70;5.40;;;24.30;9.70;;;;;;5013708;28;20424;-53
2023/07/23 09:14:07;;;;;;;5.77;5.57;;;24.40;9.80;;;;;;5013636;28;20464;-54
2023/07/23 09:16:39;;;;;;;5.70;5.47;;;24.40;10.00;;;;;;5013566;28;20419;-59
2023/07/23 09:19:07;;;;;;;5.67;5.37;;;24.50;9.80;;;;;;5011264;28;20428;-60
2023/07/23 09:21:34;;;;;;;6.00;5.70;;;24.50;9.80;;;;;;5013351;28;20463;-60
2023/07/23 09:24:04;;;;;;;5.20;5.00;;;24.50;9.90;;;;;;4996982;28;20431;-59
2023/07/23 09:26:30;;;;;;;5.67;5.40;;;24.50;9.50;;;;;;4996868;28;20764;-59
2023/07/23 09:28:59;;;;;;;5.90;5.60;;;24.60;8.80;;;;;;5012756;28;20420;-60
2023/07/23 09:31:31;;;;;;;5.90;5.60;;;24.70;8.80;;;;;;4996751;28;20272;-59
2023/07/23 09:34:00;;;;;;;4.70;4.60;;;24.80;8.80;;;;;;4993629;28;20505;-59
2023/07/23 09:36:27;;;;;;;5.47;5.20;;;24.80;7.90;;;;;;4977512;28;20449;-60
2023/07/23 09:38:56;;;;;;;5.00;4.80;;;24.80;7.40;;;;;;4977100;28;20840;-60
2023/07/23 09:41:22;;;;;;;5.50;5.10;;;24.90;8.20;;;;;;4975710;28;20535;-60
2023/07/23 09:43:48;;;;;;;4.50;4.30;;;25.00;7.60;;;;;;4975752;28;20775;-60
2023/07/23 09:46:14;;;;;;;5.93;5.63;;;25.00;7.60;;;;;;4975683;28;20540;-60
2023/07/23 09:48:49;;;;;;;5.60;5.30;;;24.90;7.30;;;;;;4992849;28;20433;-60
2023/07/23 09:51:15;;;;;;;4.97;4.77;;;24.90;7.30;;;;;;4976286;28;20625;-60
2023/07/23 09:53:45;;;;;;;4.93;4.73;;;24.90;7.40;;;;;;4977096;28;20465;-60
2023/07/23 09:56:12;;;;;;;5.03;4.80;;;25.10;7.10;;;;;;4976982;28;20213;-60
2023/07/23 09:58:39;;;;;;;5.90;5.50;;;25.30;6.70;;;;;;4976710;28;20424;-58
2023/07/23 10:01:06;;;;;;;5.43;5.23;;;25.50;6.50;;;;;;4976877;28;20903;-59
2023/07/23 10:03:32;;;;;;;4.43;4.27;;;25.70;5.80;;;;;;4976854;28;20512;-59
2023/07/23 10:05:59;;;;;;;4.70;4.50;;;25.90;5.80;;;;;;4976890;28;20836;-59
2023/07/23 10:08:27;;;;;;;4.90;4.60;;;26.00;5.40;;;;;;4976821;28;20948;-60
2023/07/23 10:10:52;;;;;;;5.00;4.53;;;26.10;5.40;;;;;;4976655;28;20429;-60
2023/07/23 10:13:18;;;;;;;4.67;4.40;;;26.30;4.50;;;;;;4994236;28;20427;-59
2023/07/23 10:15:46;;;;;;;5.00;4.80;;;26.40;4.50;;;;;;4976594;28;20212;-60
2023/07/23 10:18:13;;;;;;;7.70;4.10;;;26.50;4.40;;;;;;4976375;28;20178;-59
2023/07/23 10:20:39;;;;;;;4.83;4.63;;;26.50;3.70;;;;;;4976500;28;20428;-60
2023/07/23 10:23:05;;;;;;;5.27;4.97;;;26.40;4.20;;;;;;4976627;28;20429;-60
2023/07/23 10:25:34;;;;;;;5.67;5.37;;;26.30;4.00;;;;;;4976219;28;20512;-59
2023/07/23 10:28:20;;;;;;;5.47;5.27;;;26.10;4.60;;;;;;4976388;28;20798;-59
2023/07/23 10:30:45;;;;;;;6.00;5.63;;;25.90;5.00;;;;;;4976434;28;20424;-59
2023/07/23 10:33:11;;;;;;;5.93;5.70;;;25.90;4.90;;;;;;4976461;28;20912;-59
2023/07/23 10:35:52;;;;;;;5.57;5.17;;;26.20;4.80;;;;;;4976233;28;20210;-60
2023/07/23 10:38:29;;;;;;;5.70;5.40;;;26.40;4.60;;;;;;4976039;28;20177;-59
2023/07/23 10:40:55;;;;;;;6.43;6.03;;;26.60;4.20;;;;;;4976168;28;20419;-60
2023/07/23 10:43:21;;;;;;;5.87;5.53;;;26.90;3.90;;;;;;4976400;28;20800;-60
2023/07/23 10:46:05;;;;;;;6.20;5.80;;;27.00;4.00;;;;;;4976251;28;20538;-60
2023/07/23 10:48:42;;;;;;;5.50;5.23;;;27.20;3.30;;;;;;4975923;28;20654;-59
2023/07/23 10:51:09;;;;;;;6.60;6.30;;;27.10;3.00;;;;;;4976035;28;20425;-60
2023/07/23 10:53:40;;;;;;;6.37;6.07;;;27.00;3.40;;;;;;4976123;28;20432;-59
2023/07/23 10:56:22;;;;;;;5.70;5.40;;;26.90;3.00;;;;;;4975781;28;20547;-58
2023/07/23 10:58:49;;;;;;;6.10;5.70;;;26.70;3.30;;;;;;4975730;28;20420;-60
2023/07/23 11:01:20;;;;;;;5.30;5.10;;;26.90;3.00;;;;;;4975021;28;20428;-60
2023/07/23 11:03:46;;;;;;;7.03;6.53;;;27.10;2.70;;;;;;4975932;28;20533;-60
2023/07/23 11:06:54;;;;;;;6.13;5.67;;;27.20;2.90;;;;;;4975751;28;20507;-60
2023/07/23 11:09:49;;;;;;;6.30;5.90;;;27.10;3.20;;;;;;4973571;28;20232;-60
2023/07/23 11:12:16;;;;;;;6.00;5.70;;;26.90;3.60;;;;;;4994486;28;20927;-60
2023/07/23 11:14:41;;;;;;;6.17;5.80;;;26.90;3.90;;;;;;4995138;28;20829;-59
2023/07/23 11:17:08;;;;;;;6.10;5.83;;;26.90;3.80;;;;;;4994980;28;20527;-60
2023/07/23 11:19:33;;;;;;;5.87;5.50;;;27.10;3.50;;;;;;4994882;28;20797;-60
2023/07/23 11:22:01;;;;;;;6.30;5.80;;;27.20;2.60;;;;;;4994955;28;20511;-60
2023/07/23 11:24:28;;;;;;;5.80;5.50;;;27.20;1.80;;;;;;4994983;28;20181;-59
2023/07/23 11:26:59;;;;;;;5.33;5.13;;;27.10;2.00;;;;;;4994654;28;20428;-59
2023/07/23 11:29:26;;;;;;;5.83;5.43;;;27.20;1.90;;;;;;4994576;28;20420;-59
2023/07/23 11:31:52;;;;;;;5.70;5.33;;;27.30;2.10;;;;;;4994666;28;20427;-59
2023/07/23 11:34:18;;;;;;;5.87;5.57;;;27.30;1.80;;;;;;4994660;28;20455;-59
2023/07/23 11:36:44;;;;;;;5.40;5.20;;;27.30;1.80;;;;;;4994639;28;20471;-59
2023/07/23 11:39:10;;;;;;;6.23;5.93;;;27.40;2.10;;;;;;4994576;28;20423;-57
2023/07/23 11:41:40;;;;;;;5.67;5.27;;;27.60;1.30;;;;;;4994520;28;20571;-55
2023/07/23 11:44:08;;;;;;;6.00;5.70;;;27.50;1.00;;;;;;4994742;28;20432;-55
2023/07/23 11:46:36;;;;;;;5.33;5.13;;;27.60;1.00;;;;;;4994465;28;20427;-60
2023/07/23 11:49:04;;;;;;;5.30;5.10;;;27.80;1.00;;;;;;4994490;28;20420;-59
2023/07/23 11:51:34;;;;;;;5.50;5.20;;;27.80;1.00;;;;;;4994424;28;20424;-55
2023/07/23 11:54:19;;;;;;;5.50;5.20;;;27.90;1.00;;;;;;4994288;28;20850;-54
2023/07/23 11:56:45;;;;;;;5.77;5.47;;;27.90;1.00;;;;;;4993978;28;20436;-53
2023/07/23 11:59:13;;;;;;;5.50;5.10;;;27.80;1.00;;;;;;4994421;28;20424;-55
2023/07/23 12:01:40;;;;;;;4.87;4.67;;;27.70;1.00;;;;;;4994504;28;20420;-55
2023/07/23 12:04:08;;;;;;;5.13;4.93;;;27.70;1.00;;;;;;4994299;28;20424;-55
2023/07/23 12:06:36;;;;;;;5.50;5.20;;;27.70;1.00;;;;;;4994426;28;20408;-53
2023/07/23 12:09:06;;;;;;;6.23;5.93;;;27.70;1.00;;;;;;4994114;28;20412;-59
2023/07/23 12:11:32;;;;;;;5.63;5.40;;;27.60;1.00;;;;;;4995871;28;20526;-58
2023/07/23 12:14:04;;;;;;;5.60;5.30;;;27.60;1.00;;;;;;4998175;28;20456;-60
2023/07/23 12:16:32;;;;;;;9.93;5.70;;;27.60;1.00;;;;;;4998320;28;20416;-60
2023/07/23 12:19:21;;;;;;;6.10;5.60;;;27.60;1.00;;;;;;4998011;28;20416;-59
2023/07/23 12:21:51;;;;;;;6.10;5.80;;;27.50;1.00;;;;;;4998244;28;20758;-59
2023/07/23 12:24:20;;;;;;;6.73;6.20;;;27.50;1.00;;;;;;4997929;28;20427;-59
2023/07/23 12:26:51;;;;;;;5.20;4.90;;;27.30;1.00;;;;;;4998193;28;20428;-59
2023/07/23 12:29:18;;;;;;;6.00;5.60;;;27.30;1.00;;;;;;4997788;28;20507;-60
2023/07/23 12:31:45;;;;;;;5.43;5.13;;;27.20;1.00;;;;;;4998035;28;20416;-59
2023/07/23 12:34:12;;;;;;;5.33;5.00;;;27.10;1.00;;;;;;4996433;28;20443;-60
2023/07/23 12:36:38;;;;;;;6.27;5.90;;;27.10;1.00;;;;;;4997648;28;20420;-60
2023/07/23 12:39:05;;;;;;;6.13;5.83;;;27.00;1.00;;;;;;4997299;28;20416;-59
2023/07/23 12:41:31;;;;;;;6.33;5.70;;;26.90;1.20;;;;;;4997650;28;20419;-59
2023/07/23 12:43:57;;;;;;;5.77;5.47;;;26.90;1.80;;;;;;5013616;28;20916;-59
2023/07/23 12:46:23;;;;;;;5.80;5.50;;;26.70;2.10;;;;;;5013858;28;20173;-59
2023/07/23 12:48:49;;;;;;;5.70;5.40;;;26.60;2.30;;;;;;4997298;28;20185;-59
2023/07/23 12:51:15;;;;;;;5.47;5.13;;;26.60;2.60;;;;;;5013690;28;20416;-60
2023/07/23 12:53:41;;;;;;;5.70;5.40;;;26.60;2.70;;;;;;4997523;28;20427;-61